createdAt,value
2022-08-26T00:01:45.218Z,28.30
2022-08-26T00:04:12.676Z,28.29
2022-08-26T00:06:42.306Z,28.28
2022-08-26T00:09:12.904Z,28.28
2022-08-26T00:11:39.508Z,28.28
2022-08-26T00:14:06.604Z,28.25
2022-08-26T00:16:33.511Z,28.24
2022-08-26T00:19:01.176Z,28.22
2022-08-26T00:21:27.787Z,28.23
2022-08-26T00:23:55.652Z,28.23
2022-08-26T00:26:22.500Z,28.22
2022-08-26T00:28:55.133Z,28.23
2022-08-26T00:31:21.743Z,28.21
2022-08-26T00:33:48.557Z,28.22
2022-08-26T00:36:20.230Z,28.22
2022-08-26T00:38:47.897Z,28.23
2022-08-26T00:41:14.812Z,28.23
2022-08-26T00:43:47.136Z,28.23
2022-08-26T00:46:19.520Z,28.27
2022-08-26T00:48:50.009Z,28.25
2022-08-26T00:51:29.516Z,28.31
2022-08-26T00:54:05.796Z,28.30
2022-08-26T00:56:53.336Z,28.34
2022-08-26T00:59:20.677Z,28.21
2022-08-26T01:01:47.629Z,28.20
2022-08-26T01:04:17.974Z,28.20
2022-08-26T01:06:45.270Z,28.18
2022-08-26T01:09:12.693Z,28.16
2022-08-26T01:11:39.905Z,28.16
2022-08-26T01:14:08.626Z,28.17
2022-08-26T01:16:37.171Z,28.14
2022-08-26T01:19:15.914Z,28.21
2022-08-26T01:21:55.439Z,28.23
2022-08-26T01:24:22.079Z,28.14
2022-08-26T01:26:49.220Z,28.11
2022-08-26T01:29:19.276Z,28.14
2022-08-26T01:31:52.661Z,28.15
2022-08-26T01:34:26.918Z,28.16
2022-08-26T01:37:07.062Z,28.12
2022-08-26T01:39:36.322Z,28.07
2022-08-26T01:42:05.405Z,28.05
2022-08-26T01:44:59.405Z,28.11
2022-08-26T01:47:29.940Z,28.04
2022-08-26T01:49:59.836Z,28.04
2022-08-26T01:52:29.669Z,28.02
2022-08-26T01:54:58.955Z,28.00
2022-08-26T01:57:27.321Z,27.99
2022-08-26T01:59:58.138Z,28.01
2022-08-26T02:02:24.917Z,27.96
2022-08-26T02:04:59.641Z,27.99
2022-08-26T02:07:27.297Z,27.94
2022-08-26T02:09:54.117Z,27.93
2022-08-26T02:12:21.180Z,27.93
2022-08-26T02:14:54.930Z,27.94
2022-08-26T02:17:29.757Z,27.95
2022-08-26T02:19:57.888Z,27.90
2022-08-26T02:22:24.879Z,27.87
2022-08-26T02:24:54.513Z,27.88
2022-08-26T02:27:39.789Z,28.01
2022-08-26T02:30:09.239Z,27.85
2022-08-26T02:32:37.162Z,27.84
2022-08-26T02:35:09.011Z,27.82
2022-08-26T02:37:36.159Z,27.79
2022-08-26T02:40:05.200Z,27.76
2022-08-26T02:42:31.799Z,27.70
2022-08-26T02:44:58.490Z,27.66
2022-08-26T02:47:25.627Z,27.63
2022-08-26T02:49:55.840Z,27.61
2022-08-26T02:52:22.404Z,27.58
2022-08-26T02:54:49.618Z,27.57
2022-08-26T02:57:16.341Z,27.55
2022-08-26T02:59:42.972Z,27.55
2022-08-26T03:02:11.376Z,27.53
2022-08-26T03:04:40.245Z,27.53
2022-08-26T03:07:07.323Z,27.52
2022-08-26T03:09:34.088Z,27.51
2022-08-26T03:12:01.356Z,27.49
2022-08-26T03:14:29.008Z,27.49
2022-08-26T03:16:57.468Z,27.49
2022-08-26T03:19:25.966Z,27.48
2022-08-26T03:21:57.689Z,27.48
2022-08-26T03:24:26.029Z,27.48
2022-08-26T03:26:53.175Z,27.47
2022-08-26T03:29:39.538Z,27.48
2022-08-26T03:32:06.372Z,27.51
2022-08-26T03:34:33.133Z,27.49
2022-08-26T03:36:59.817Z,27.48
2022-08-26T03:39:26.492Z,27.47
2022-08-26T03:41:54.305Z,27.46
2022-08-26T03:44:21.837Z,27.46
2022-08-26T03:46:48.437Z,27.46
2022-08-26T03:49:15.724Z,27.45
2022-08-26T03:51:42.299Z,27.46
2022-08-26T03:54:09.578Z,27.45
2022-08-26T03:56:36.884Z,27.45
2022-08-26T03:59:04.415Z,27.45
2022-08-26T04:01:31.594Z,27.44
2022-08-26T04:04:00.515Z,27.44
2022-08-26T04:06:31.082Z,27.46
2022-08-26T04:09:02.539Z,27.46
2022-08-26T04:11:34.652Z,27.41
2022-08-26T04:14:07.651Z,27.41
2022-08-26T04:16:34.566Z,27.40
2022-08-26T04:19:01.939Z,27.40
2022-08-26T04:21:28.940Z,27.38
2022-08-26T04:23:56.289Z,27.38
2022-08-26T04:26:26.083Z,27.37
2022-08-26T04:28:54.699Z,27.37
2022-08-26T04:31:22.123Z,27.35
2022-08-26T04:33:49.973Z,27.34
2022-08-26T04:36:20.143Z,27.32
2022-08-26T04:38:47.524Z,27.31
2022-08-26T04:41:15.414Z,27.30
2022-08-26T04:43:44.891Z,27.28
2022-08-26T04:46:14.318Z,27.28
2022-08-26T04:48:41.525Z,27.28
2022-08-26T04:51:09.965Z,27.27
2022-08-26T04:53:37.474Z,27.26
2022-08-26T04:56:05.203Z,27.25
2022-08-26T04:58:32.186Z,27.24
2022-08-26T05:00:58.870Z,27.22
2022-08-26T05:03:30.565Z,27.20
2022-08-26T05:05:58.123Z,27.19
2022-08-26T05:08:25.178Z,27.19
2022-08-26T05:10:56.349Z,27.21
2022-08-26T05:13:26.338Z,27.19
2022-08-26T05:15:53.239Z,27.15
2022-08-26T05:18:23.423Z,27.12
2022-08-26T05:20:54.658Z,27.15
2022-08-26T05:23:23.416Z,27.10
2022-08-26T05:25:57.015Z,27.12
2022-08-26T05:28:26.347Z,27.10
2022-08-26T05:30:53.145Z,27.11
2022-08-26T05:33:20.287Z,27.11
2022-08-26T05:35:47.396Z,27.12
2022-08-26T05:38:16.636Z,27.15
2022-08-26T05:40:46.730Z,27.16
2022-08-26T05:43:14.489Z,27.16
2022-08-26T05:45:47.183Z,27.22
2022-08-26T05:48:16.242Z,27.19
2022-08-26T05:50:49.101Z,27.24
2022-08-26T05:53:19.262Z,27.23
2022-08-26T05:55:49.784Z,27.20
2022-08-26T05:58:20.319Z,27.19
2022-08-26T06:00:57.058Z,27.20
2022-08-26T06:03:23.757Z,27.61
2022-08-26T06:05:50.315Z,27.26
2022-08-26T06:08:19.325Z,27.17
2022-08-26T06:10:52.810Z,27.22
2022-08-26T06:13:22.222Z,27.16
2022-08-26T06:15:51.223Z,27.14
2022-08-26T06:18:22.411Z,27.17
2022-08-26T06:20:57.993Z,27.15
2022-08-26T06:23:45.777Z,27.17
2022-08-26T06:26:14.375Z,27.16
2022-08-26T06:28:41.164Z,27.16
2022-08-26T06:31:12.851Z,27.18
2022-08-26T06:33:39.520Z,27.19
2022-08-26T06:36:06.870Z,27.20
2022-08-26T06:38:34.565Z,27.22
2022-08-26T06:41:03.120Z,27.23
2022-08-26T06:43:29.794Z,27.23
2022-08-26T06:46:06.011Z,27.29
2022-08-26T06:48:34.493Z,27.21
2022-08-26T06:51:11.494Z,27.29
2022-08-26T06:53:41.105Z,27.17
2022-08-26T06:56:10.654Z,27.18
2022-08-26T06:58:39.426Z,27.16
2022-08-26T07:01:29.134Z,27.30
2022-08-26T07:03:58.262Z,27.16
2022-08-26T07:06:27.523Z,27.14
2022-08-26T07:09:01.378Z,27.13
2022-08-26T07:11:30.979Z,27.14
2022-08-26T07:13:59.096Z,27.15
2022-08-26T07:16:27.879Z,27.14
2022-08-26T07:18:56.259Z,27.13
2022-08-26T07:21:24.636Z,27.12
2022-08-26T07:23:57.510Z,27.11
2022-08-26T07:26:28.620Z,27.11
2022-08-26T07:28:57.370Z,27.10
2022-08-26T07:31:25.742Z,27.11
2022-08-26T07:33:53.667Z,27.11
2022-08-26T07:36:21.991Z,27.14
2022-08-26T07:38:49.089Z,27.12
2022-08-26T07:41:18.041Z,27.12
2022-08-26T07:43:46.244Z,27.09
2022-08-26T07:46:20.731Z,27.06
2022-08-26T07:48:53.554Z,27.03
2022-08-26T07:51:21.520Z,27.00
2022-08-26T07:53:52.374Z,26.98
2022-08-26T07:56:20.719Z,26.95
2022-08-26T07:58:51.331Z,26.95
2022-08-26T08:01:18.447Z,26.97
2022-08-26T08:03:45.576Z,26.99
2022-08-26T08:06:12.552Z,27.03
2022-08-26T08:08:41.431Z,27.07
2022-08-26T08:11:08.195Z,27.12
2022-08-26T08:13:37.523Z,27.15
2022-08-26T08:16:05.315Z,27.21
2022-08-26T08:18:31.967Z,27.28
2022-08-26T08:21:21.151Z,27.32
2022-08-26T08:23:48.390Z,27.41
2022-08-26T08:26:15.491Z,27.46
2022-08-26T08:28:43.773Z,27.53
2022-08-26T08:31:38.616Z,27.67
2022-08-26T08:34:08.405Z,28.03
2022-08-26T08:36:36.046Z,27.82
2022-08-26T08:39:03.181Z,27.84
2022-08-26T08:42:00.511Z,27.98
2022-08-26T08:44:29.120Z,27.94
2022-08-26T08:47:14.790Z,28.02
2022-08-26T08:49:43.806Z,28.04
2022-08-26T08:52:37.642Z,28.27
2022-08-26T08:55:11.157Z,28.20
2022-08-26T08:58:02.659Z,28.37
2022-08-26T09:00:42.618Z,28.46
2022-08-26T09:03:24.475Z,28.62
2022-08-26T09:05:53.459Z,28.73
2022-08-26T09:08:27.594Z,28.90
2022-08-26T09:10:59.411Z,29.06
2022-08-26T09:13:27.583Z,29.21
2022-08-26T09:16:08.460Z,29.46
2022-08-26T09:19:15.593Z,29.68
2022-08-26T09:21:45.869Z,29.81
2022-08-26T09:24:14.011Z,29.98
2022-08-26T09:26:41.064Z,30.17
2022-08-26T09:31:48.138Z,30.59
2022-08-26T09:34:23.843Z,30.80
2022-08-26T09:36:53.857Z,30.97
2022-08-26T09:39:26.523Z,31.16
2022-08-26T09:42:22.657Z,31.40
2022-08-26T09:45:06.261Z,31.61
2022-08-26T09:47:52.650Z,31.81
2022-08-26T09:50:54.925Z,32.07
2022-08-26T09:53:30.538Z,32.21
2022-08-26T09:56:18.319Z,32.44
2022-08-26T09:58:47.447Z,32.54
2022-08-26T10:01:23.185Z,32.72
2022-08-26T10:03:51.528Z,32.83
2022-08-26T10:06:21.172Z,32.99
2022-08-26T10:08:55.131Z,33.13
2022-08-26T10:11:30.562Z,33.32
2022-08-26T10:14:03.185Z,33.42
2022-08-26T10:22:04.387Z,33.90
2022-08-26T10:24:40.319Z,33.99
2022-08-26T10:27:52.687Z,34.18
2022-08-26T10:30:23.311Z,34.26
2022-08-26T10:32:58.276Z,34.40
2022-08-26T10:35:27.050Z,34.50
2022-08-26T10:37:58.100Z,34.63
2022-08-26T10:40:37.299Z,34.76
2022-08-26T10:43:14.144Z,34.88
2022-08-26T10:45:50.404Z,35.01
2022-08-26T10:48:27.916Z,35.14
2022-08-26T10:51:04.229Z,35.23
2022-08-26T10:53:45.306Z,35.39
2022-08-26T10:56:25.073Z,35.48
2022-08-26T10:58:57.467Z,35.58
2022-08-26T11:01:51.075Z,35.67
2022-08-26T11:04:48.122Z,35.79
2022-08-26T11:07:36.901Z,35.96
2022-08-26T11:10:20.594Z,36.03
2022-08-26T11:12:50.202Z,36.13
2022-08-26T11:15:19.775Z,36.20
2022-08-26T11:17:51.268Z,36.26
2022-08-26T11:20:29.958Z,36.40
2022-08-26T11:23:28.309Z,36.54
2022-08-26T11:26:16.444Z,36.63
2022-08-26T11:29:03.037Z,36.65
2022-08-26T11:31:30.542Z,36.72
2022-08-26T11:34:08.841Z,36.85
2022-08-26T11:36:51.741Z,36.91
2022-08-26T11:39:18.205Z,37.00
2022-08-26T11:41:47.544Z,37.10
2022-08-26T11:44:24.602Z,37.19
2022-08-26T11:46:55.695Z,37.31
2022-08-26T11:49:22.758Z,37.37
2022-08-26T11:51:49.443Z,37.47
2022-08-26T11:54:34.496Z,37.58
2022-08-26T11:57:09.289Z,37.69
2022-08-26T11:59:39.229Z,38.00
2022-08-26T12:02:15.422Z,37.94
2022-08-26T12:04:46.294Z,37.96
2022-08-26T12:07:13.396Z,38.04
2022-08-26T12:09:56.393Z,38.18
2022-08-26T12:12:34.808Z,38.23
2022-08-26T12:15:20.069Z,38.32
2022-08-26T12:17:52.990Z,38.57
2022-08-26T12:20:30.858Z,38.50
2022-08-26T12:23:00.112Z,38.53
2022-08-26T12:25:28.064Z,38.59
2022-08-26T12:28:05.556Z,38.72
2022-08-26T12:30:32.241Z,38.78
2022-08-26T12:33:23.021Z,38.94
2022-08-26T12:35:56.322Z,38.99
2022-08-26T12:38:25.070Z,39.08
2022-08-26T12:40:51.690Z,39.13
2022-08-26T12:43:40.362Z,39.31
2022-08-26T12:46:09.103Z,39.28
2022-08-26T12:48:38.695Z,39.32
2022-08-26T12:51:19.776Z,39.39
2022-08-26T12:53:46.388Z,39.25
2022-08-26T12:56:29.025Z,39.29
2022-08-26T12:59:04.712Z,39.17
2022-08-26T13:01:40.525Z,39.14
2022-08-26T13:04:07.097Z,39.01
2022-08-26T13:06:34.993Z,39.00
2022-08-26T13:09:07.371Z,39.11
2022-08-26T13:11:55.313Z,39.07
2022-08-26T13:14:24.572Z,39.04
2022-08-26T13:16:52.866Z,38.97
2022-08-26T13:19:22.986Z,38.93
2022-08-26T13:21:55.445Z,38.86
2022-08-26T13:24:24.706Z,38.84
2022-08-26T13:26:51.585Z,38.74
2022-08-26T13:29:19.353Z,38.66
2022-08-26T13:31:46.633Z,38.59
2022-08-26T13:34:18.226Z,38.57
2022-08-26T13:36:45.513Z,38.47
2022-08-26T13:39:12.719Z,38.39
2022-08-26T13:41:39.273Z,38.26
2022-08-26T13:44:06.526Z,38.13
2022-08-26T13:46:33.419Z,37.99
2022-08-26T13:48:59.966Z,37.87
2022-08-26T13:51:29.806Z,37.74
2022-08-26T13:53:56.598Z,37.61
2022-08-26T13:56:27.375Z,37.50
2022-08-26T13:58:53.854Z,37.38
2022-08-26T14:01:20.544Z,37.23
2022-08-26T14:03:47.127Z,37.11
2022-08-26T14:06:13.922Z,36.98
2022-08-26T14:08:43.762Z,36.93
2022-08-26T14:11:10.976Z,36.74
2022-08-26T14:13:37.646Z,36.64
2022-08-26T14:16:07.664Z,36.57
2022-08-26T14:18:41.882Z,36.48
2022-08-26T14:21:12.597Z,36.46
2022-08-26T14:23:39.126Z,36.32
2022-08-26T14:26:08.379Z,36.26
2022-08-26T14:28:35.636Z,36.20
2022-08-26T14:31:03.452Z,36.14
2022-08-26T14:33:33.962Z,36.14
2022-08-26T14:36:19.438Z,36.04
2022-08-26T14:38:46.533Z,36.00
2022-08-26T14:41:17.103Z,35.97
2022-08-26T14:43:59.893Z,36.05
2022-08-26T14:46:30.291Z,35.94
2022-08-26T14:49:01.994Z,35.88
2022-08-26T14:51:28.901Z,35.87
2022-08-26T14:54:13.989Z,35.85
2022-08-26T14:56:48.825Z,35.92
2022-08-26T14:59:18.066Z,35.84
2022-08-26T15:01:45.713Z,35.82
2022-08-26T15:04:12.841Z,35.79
2022-08-26T15:06:39.995Z,35.75
2022-08-26T15:09:07.414Z,35.70
2022-08-26T15:11:34.256Z,35.66
2022-08-26T15:14:00.726Z,35.60
2022-08-26T15:16:29.132Z,35.54
2022-08-26T15:18:56.441Z,35.48
2022-08-26T15:21:23.926Z,35.41
2022-08-26T15:23:52.706Z,35.35
2022-08-26T15:26:20.436Z,35.27
2022-08-26T15:28:47.154Z,35.21
2022-08-26T15:31:13.981Z,35.13
2022-08-26T15:33:40.579Z,35.07
2022-08-26T15:36:08.248Z,35.00
2022-08-26T15:38:38.915Z,34.97
2022-08-26T15:41:08.686Z,34.86
2022-08-26T15:43:36.607Z,34.79
2022-08-26T15:46:03.914Z,34.72
2022-08-26T15:48:30.486Z,34.65
2022-08-26T15:51:02.514Z,34.58
2022-08-26T15:53:31.508Z,34.50
2022-08-26T15:55:58.998Z,34.40
2022-08-26T15:58:27.654Z,34.35
2022-08-26T16:00:56.010Z,34.26
2022-08-26T16:03:22.804Z,34.22
2022-08-26T16:05:49.547Z,34.15
2022-08-26T16:08:16.337Z,34.10
2022-08-26T16:10:50.247Z,34.13
2022-08-26T16:13:19.206Z,34.05
2022-08-26T16:15:47.529Z,34.01
2022-08-26T16:18:15.533Z,33.99
2022-08-26T16:20:55.395Z,34.08
2022-08-26T16:23:38.463Z,34.02
2022-08-26T16:26:14.339Z,34.08
2022-08-26T16:28:41.056Z,34.00
2022-08-26T16:31:10.549Z,33.94
2022-08-26T16:33:39.999Z,33.88
2022-08-26T16:36:07.952Z,33.81
2022-08-26T16:38:35.488Z,33.77
2022-08-26T16:41:02.442Z,33.71
2022-08-26T16:43:29.121Z,33.65
2022-08-26T16:45:56.216Z,33.57
2022-08-26T16:48:23.601Z,33.51
2022-08-26T16:50:50.874Z,33.42
2022-08-26T16:53:17.482Z,33.34
2022-08-26T16:55:48.322Z,33.31
2022-08-26T16:58:15.297Z,33.13
2022-08-26T17:00:42.345Z,33.03
2022-08-26T17:03:09.039Z,32.92
2022-08-26T17:05:36.351Z,32.80
2022-08-26T17:08:03.890Z,32.66
2022-08-26T17:10:30.821Z,32.48
2022-08-26T17:12:57.810Z,32.33
2022-08-26T17:15:25.404Z,32.15
2022-08-26T17:17:53.375Z,31.96
2022-08-26T17:20:22.420Z,31.78
2022-08-26T17:22:51.190Z,31.55
2022-08-26T17:25:22.575Z,31.35
2022-08-26T17:27:49.107Z,31.05
2022-08-26T17:30:17.453Z,30.80
2022-08-26T17:32:44.954Z,30.61
2022-08-26T17:35:13.029Z,30.42
2022-08-26T17:37:39.924Z,30.26
2022-08-26T17:40:10.211Z,30.14
2022-08-26T17:42:38.761Z,30.00
2022-08-26T17:45:06.154Z,29.88
2022-08-26T17:47:33.242Z,29.76
2022-08-26T17:50:01.265Z,29.66
2022-08-26T17:52:28.587Z,29.57
2022-08-26T17:54:58.449Z,29.47
2022-08-26T17:57:26.228Z,29.31
2022-08-26T17:59:53.748Z,29.18
2022-08-26T18:02:21.084Z,29.02
2022-08-26T18:04:47.849Z,28.87
2022-08-26T18:07:14.566Z,28.74
2022-08-26T18:09:41.153Z,28.66
2022-08-26T18:12:08.291Z,28.55
2022-08-26T18:14:35.468Z,28.48
2022-08-26T18:17:02.461Z,28.40
2022-08-26T18:19:29.845Z,28.32
2022-08-26T18:21:56.864Z,28.26
2022-08-26T18:24:23.683Z,28.20
2022-08-26T18:26:51.094Z,28.17
2022-08-26T18:29:19.926Z,28.16
2022-08-26T18:31:46.660Z,28.16
2022-08-26T18:34:15.457Z,28.19
2022-08-26T18:36:43.780Z,28.22
2022-08-26T18:39:12.587Z,28.27
2022-08-26T18:41:44.888Z,28.34
2022-08-26T18:44:13.973Z,28.36
2022-08-26T18:46:40.949Z,28.40
2022-08-26T18:49:08.346Z,28.44
2022-08-26T18:51:35.596Z,28.47
2022-08-26T18:54:04.587Z,28.50
2022-08-26T18:56:32.109Z,28.53
2022-08-26T18:59:01.580Z,28.56
2022-08-26T19:01:30.177Z,28.57
2022-08-26T19:03:58.931Z,28.58
2022-08-26T19:06:28.279Z,28.60
2022-08-26T19:08:55.671Z,28.59
2022-08-26T19:11:31.985Z,28.58
2022-08-26T19:13:59.947Z,28.60
2022-08-26T19:16:27.519Z,28.60
2022-08-26T19:18:55.346Z,28.60
2022-08-26T19:21:23.519Z,28.58
2022-08-26T19:23:51.174Z,28.55
2022-08-26T19:26:18.482Z,28.53
2022-08-26T19:28:45.063Z,28.50
2022-08-26T19:31:12.326Z,28.47
2022-08-26T19:33:41.920Z,28.47
2022-08-26T19:36:22.143Z,28.50
2022-08-26T19:38:50.025Z,28.42
2022-08-26T19:41:36.706Z,28.50
2022-08-26T19:44:07.314Z,28.38
2022-08-26T19:46:33.998Z,28.35
2022-08-26T19:49:00.488Z,28.34
2022-08-26T19:51:29.749Z,28.34
2022-08-26T19:53:58.905Z,28.32
2022-08-26T19:56:26.741Z,28.31
2022-08-26T19:58:54.451Z,28.32
2022-08-26T20:01:22.004Z,28.31
2022-08-26T20:03:49.492Z,28.30
2022-08-26T20:06:20.102Z,28.32
2022-08-26T20:08:46.736Z,28.26
2022-08-26T20:11:17.176Z,28.25
2022-08-26T20:13:46.553Z,28.21
2022-08-26T20:16:13.865Z,28.15
2022-08-26T20:18:59.728Z,28.12
2022-08-26T20:21:27.733Z,28.09
2022-08-26T20:23:58.463Z,28.05
2022-08-26T20:26:27.384Z,28.00
2022-08-26T20:28:55.070Z,27.96
2022-08-26T20:31:21.775Z,27.93
2022-08-26T20:33:49.565Z,27.89
2022-08-26T20:36:16.478Z,27.83
2022-08-26T20:38:43.101Z,27.76
2022-08-26T20:41:10.432Z,27.69
2022-08-26T20:43:36.993Z,27.63
2022-08-26T20:46:03.796Z,27.56
2022-08-26T20:48:34.812Z,27.51
2022-08-26T20:51:02.048Z,27.46
2022-08-26T20:53:29.702Z,27.42
2022-08-26T20:56:08.678Z,27.50
2022-08-26T20:58:36.407Z,27.35
2022-08-26T21:01:07.578Z,27.34
2022-08-26T21:03:35.101Z,27.31
2022-08-26T21:06:03.164Z,27.31
2022-08-26T21:08:29.740Z,27.29
2022-08-26T21:11:00.079Z,27.29
2022-08-26T21:13:26.913Z,27.26
2022-08-26T21:15:58.043Z,27.30
2022-08-26T21:18:25.123Z,27.19
2022-08-26T21:20:52.759Z,27.13
2022-08-26T21:23:19.384Z,27.08
2022-08-26T21:25:46.618Z,27.02
2022-08-26T21:28:13.348Z,26.97
2022-08-26T21:30:40.702Z,26.91
2022-08-26T21:33:07.621Z,26.84
2022-08-26T21:35:34.173Z,26.78
2022-08-26T21:38:00.818Z,26.72
2022-08-26T21:40:27.865Z,26.66
2022-08-26T21:42:54.476Z,26.65
2022-08-26T21:45:20.995Z,26.64
2022-08-26T21:47:47.518Z,26.64
2022-08-26T21:50:13.999Z,26.66
2022-08-26T21:52:40.552Z,26.68
2022-08-26T21:55:09.093Z,26.72
2022-08-26T21:57:38.034Z,26.76
2022-08-26T22:00:08.936Z,26.82
2022-08-26T22:02:37.068Z,26.83
2022-08-26T22:05:04.112Z,26.88
2022-08-26T22:07:30.672Z,26.89
2022-08-26T22:09:57.255Z,26.92
2022-08-26T22:12:23.736Z,26.94
2022-08-26T22:14:50.315Z,26.95
2022-08-26T22:17:17.092Z,26.93
2022-08-26T22:19:46.181Z,26.90
2022-08-26T22:22:14.409Z,26.83
2022-08-26T22:24:43.239Z,26.77
2022-08-26T22:32:23.491Z,26.53
2022-08-26T22:34:50.007Z,26.47
2022-08-26T22:37:16.566Z,26.41
2022-08-26T22:39:43.113Z,26.36
2022-08-26T22:42:09.682Z,26.30
2022-08-26T22:44:37.609Z,26.25
2022-08-26T22:47:05.186Z,26.19
2022-08-26T22:49:31.762Z,26.15
2022-08-26T22:51:58.256Z,26.13
2022-08-26T22:54:24.877Z,26.12
2022-08-26T22:56:51.393Z,26.09
2022-08-26T22:59:18.012Z,26.08
2022-08-26T23:01:46.341Z,26.08
2022-08-26T23:04:13.033Z,26.07
2022-08-26T23:06:43.106Z,26.08
2022-08-26T23:09:10.961Z,26.08
2022-08-26T23:11:39.813Z,26.07
2022-08-26T23:14:08.922Z,26.08
2022-08-26T23:16:37.875Z,26.08
2022-08-26T23:19:07.544Z,26.05
2022-08-26T23:21:34.371Z,26.03
2022-08-26T23:24:02.303Z,26.01
2022-08-26T23:26:28.830Z,25.99
2022-08-26T23:28:55.542Z,25.97
2022-08-26T23:31:22.088Z,25.94
2022-08-26T23:34:07.230Z,25.92
2022-08-26T23:36:35.043Z,25.89
2022-08-26T23:39:03.082Z,25.87
2022-08-26T23:41:29.591Z,25.84
2022-08-26T23:43:57.983Z,25.79
2022-08-26T23:46:27.079Z,25.75
2022-08-26T23:48:53.605Z,25.70
2022-08-26T23:51:38.693Z,25.65
2022-08-26T23:54:05.223Z,25.60
2022-08-26T23:56:31.830Z,25.54
2022-08-26T23:58:58.726Z,25.51
